Hlavní strana
METAR-TAF:

METAR-TAF

Letiště :

Kuusamo, Finsko

zeměpisná šířka: 65-58N, zeměpisná délka: 029-11E, výška: 262 m

Aktuální stav počasí

Zpráva byla vytvořena před 16 minutami, v 17:50 UTC
Západní vítr 9 kt s nárazy do 20 kt
Teplota 4°C
Vlhkost vzduchu 93%
Tlak 1003 hPa
Viditelnost 10 km a více
Oblačno až skoro zataženo ve výšce 900 ft

METAR: EFKS 181750Z AUTO 26009G20KT 9999 BKN009 04/03 Q1003

Čas: 21:06 (18:06 UTC)

Předpověď počasí

Zpráva byla vytvořena před 9 hodinami a 36 minutami, v 08:30 UTC
Předpověď platná od 18 v 09 UTC do 18 v 13 UTC
Západní vítr 7 kt
Viditelnost 10 km a více
Oblačno až skoro zataženo ve výšce 500 ft
Změna
od 18 v 11 UTC do 18 v 13 UTC
Polojasno ve výšce 1000 ft

TAF: EFKS 180830Z 1809/1813 26007KT 9999 BKN005 BECMG 1811/1813 SCT010

Stav a předpovědi počasí z více než 4 000 letišť (zprávy METAR a TAF).

Červené a žluté tečky na mapě představují dostupné meteorologické stanice.

Když kurzor umístíte na tečku, zobrazí se název stanice.

Pak kliknutím zobrazíte stav a předpověď počasí.

Chcete-li změnit mapu, kliknutím na zelené tlačítko se znaménkem +mapu přiblížíte, kliknutím na zelené tlačítko se znaménkem – mapu oddálíte a kliknutím na zelené šipky přejdete na sousední mapy.


METAR-TAF: